Time;durP1;ratioP1;P1;durP2;ratioP2;P2;SDS_P1;SDS_P2;PMS_P1;PMS_P2;Temp;Humidity;BMP_temperature;BMP_pressure;BME280_temperature;BME280_humidity;BME280_pressure;Samples;Min_cycle;Max_cycle;Signal;HPM_P1;HPM_P2
2022/06/07 00:01:29;;;;;;;5.17;3.70;;;19.20;99.90;;;;;;5008276;28;20209;-74
2022/06/07 00:03:55;;;;;;;3.70;3.40;;;19.20;99.90;;;;;;4996779;28;20292;-74
2022/06/07 00:06:22;;;;;;;4.23;3.93;;;19.20;99.90;;;;;;4998678;28;20241;-75
2022/06/07 00:08:51;;;;;;;4.40;4.00;;;19.20;99.90;;;;;;5007489;28;20201;-75
2022/06/07 00:11:18;;;;;;;3.67;3.47;;;19.10;99.90;;;;;;5007935;28;20626;-74
2022/06/07 00:13:46;;;;;;;3.80;3.50;;;19.10;99.90;;;;;;5007823;28;20620;-73
2022/06/07 00:16:13;;;;;;;4.00;3.80;;;19.10;99.90;;;;;;5007451;28;20575;-73
2022/06/07 00:18:40;;;;;;;4.20;4.00;;;19.10;99.90;;;;;;5007828;28;20684;-75
2022/06/07 00:21:07;;;;;;;4.07;3.70;;;19.00;99.90;;;;;;5007995;28;20280;-75
2022/06/07 00:23:35;;;;;;;4.43;4.10;;;19.00;99.90;;;;;;5008042;28;20579;-74
2022/06/07 00:26:10;;;;;;;3.90;3.70;;;19.00;99.90;;;;;;5007812;28;20611;-73
2022/06/07 00:28:37;;;;;;;4.20;3.90;;;19.00;99.90;;;;;;5007916;28;20231;-73
2022/06/07 00:31:08;;;;;;;5.30;3.90;;;19.00;99.90;;;;;;5006028;28;20304;-73
2022/06/07 00:33:35;;;;;;;4.20;3.90;;;19.00;99.90;;;;;;5007613;28;20243;-75
2022/06/07 00:36:04;;;;;;;4.07;3.67;;;19.10;99.90;;;;;;5007530;28;20221;-74
2022/06/07 00:38:32;;;;;;;4.23;3.80;;;19.10;99.90;;;;;;5007738;28;20201;-74
2022/06/07 00:40:59;;;;;;;4.37;4.07;;;19.10;99.90;;;;;;5007196;28;20703;-74
2022/06/07 00:43:26;;;;;;;4.20;4.00;;;19.10;99.90;;;;;;5007695;28;20201;-73
2022/06/07 00:45:53;;;;;;;4.17;3.97;;;19.10;99.90;;;;;;5007562;28;20214;-73
2022/06/07 00:48:22;;;;;;;4.60;4.20;;;19.10;99.90;;;;;;5008807;28;20675;-73
2022/06/07 00:50:53;;;;;;;3.80;3.60;;;19.10;99.90;;;;;;5011623;28;20211;-72
2022/06/07 00:53:26;;;;;;;4.40;4.10;;;19.10;99.90;;;;;;5011191;28;20229;-72
2022/06/07 00:55:53;;;;;;;4.27;3.97;;;19.10;99.90;;;;;;5011155;28;20194;-72
2022/06/07 00:58:22;;;;;;;5.17;4.23;;;19.10;99.90;;;;;;5010850;28;20663;-72
2022/06/07 01:00:50;;;;;;;4.30;4.10;;;19.10;99.90;;;;;;5011174;28;20263;-72
2022/06/07 01:03:18;;;;;;;5.23;3.80;;;19.10;99.90;;;;;;5011339;28;20224;-72
2022/06/07 01:05:46;;;;;;;4.30;4.00;;;19.10;99.90;;;;;;5011128;28;20229;-72
2022/06/07 01:10:57;;;;;;;4.43;3.73;;;19.00;99.90;;;;;;4991374;28;20671;-72
2022/06/07 01:13:28;;;;;;;4.43;4.13;;;19.00;99.90;;;;;;5010464;28;20645;-72
2022/06/07 01:15:58;;;;;;;4.40;4.10;;;18.90;99.90;;;;;;4991880;28;20289;-72
2022/06/07 01:18:25;;;;;;;4.30;4.03;;;18.90;99.90;;;;;;5010516;28;20206;-72
2022/06/07 01:21:14;;;;;;;4.47;4.27;;;18.90;99.90;;;;;;5010458;28;20216;-72
2022/06/07 01:23:42;;;;;;;4.47;4.07;;;18.90;99.90;;;;;;5010789;28;20201;-72
2022/06/07 01:26:09;;;;;;;4.63;4.33;;;18.80;99.90;;;;;;5010415;28;20218;-72
2022/06/07 01:28:36;;;;;;;4.60;4.20;;;18.80;99.90;;;;;;5010779;28;20308;-72
2022/06/07 01:31:06;;;;;;;4.23;3.97;;;18.80;99.90;;;;;;5010779;28;20210;-72
2022/06/07 01:33:33;;;;;;;4.30;4.07;;;18.80;99.90;;;;;;5010343;28;20244;-72
2022/06/07 01:36:08;;;;;;;4.23;4.00;;;18.80;99.90;;;;;;5010461;28;20214;-72
2022/06/07 01:38:38;;;;;;;4.43;4.03;;;18.80;99.90;;;;;;5010335;28;20589;-72
2022/06/07 01:43:53;;;;;;;4.83;4.00;;;18.70;99.90;;;;;;5010180;28;20200;-72
2022/06/07 01:46:20;;;;;;;4.40;4.00;;;18.60;99.90;;;;;;5010104;28;20205;-72
2022/06/07 01:48:48;;;;;;;4.70;4.30;;;18.60;99.90;;;;;;5010297;28;20205;-72
2022/06/07 01:51:15;;;;;;;4.30;4.00;;;18.50;99.90;;;;;;5010161;28;20202;-74
2022/06/07 01:53:44;;;;;;;4.00;3.70;;;18.60;99.90;;;;;;5010150;28;20238;-74
2022/06/07 01:56:13;;;;;;;11.27;4.57;;;18.50;99.90;;;;;;5009987;28;20236;-72
2022/06/07 01:58:42;;;;;;;4.20;4.00;;;18.50;99.90;;;;;;5009762;28;20846;-72
2022/06/07 02:01:09;;;;;;;4.07;3.77;;;18.40;99.90;;;;;;5009170;28;20206;-74
2022/06/07 02:03:36;;;;;;;3.87;3.67;;;18.40;99.90;;;;;;5010271;28;20213;-73
2022/06/07 02:06:07;;;;;;;4.33;3.93;;;18.40;99.90;;;;;;5009734;28;20656;-74
2022/06/07 02:08:36;;;;;;;4.70;4.40;;;18.40;99.90;;;;;;5010162;28;20198;-73
2022/06/07 02:11:09;;;;;;;3.80;3.60;;;18.40;99.90;;;;;;5009973;28;20216;-73
2022/06/07 02:13:37;;;;;;;4.70;4.40;;;18.40;99.90;;;;;;5010024;28;20214;-74
2022/06/07 02:16:07;;;;;;;4.73;4.27;;;18.50;99.90;;;;;;5009435;28;20300;-73
2022/06/07 02:18:35;;;;;;;4.23;3.83;;;18.40;99.90;;;;;;5010040;28;20214;-72
2022/06/07 02:21:02;;;;;;;4.53;4.23;;;18.40;99.90;;;;;;5009693;28;20221;-72
2022/06/07 02:23:29;;;;;;;4.30;4.00;;;18.40;99.90;;;;;;5009424;28;20235;-72
2022/06/07 02:25:59;;;;;;;3.83;3.53;;;18.30;99.90;;;;;;5006537;28;20304;-72
2022/06/07 02:28:31;;;;;;;4.63;4.13;;;18.30;99.90;;;;;;5007173;28;20230;-73
2022/06/07 02:30:59;;;;;;;4.37;3.80;;;18.20;99.90;;;;;;5007205;28;20194;-72
2022/06/07 02:33:27;;;;;;;3.60;3.40;;;18.10;99.90;;;;;;5006862;28;20405;-73
2022/06/07 02:35:54;;;;;;;4.60;4.20;;;18.00;99.90;;;;;;5006689;28;20209;-72
2022/06/07 02:38:22;;;;;;;3.83;3.50;;;17.80;99.90;;;;;;5007642;28;20289;-73
2022/06/07 02:40:50;;;;;;;4.83;3.50;;;17.70;99.90;;;;;;4987939;28;20795;-72
2022/06/07 02:43:17;;;;;;;3.90;3.70;;;17.70;99.90;;;;;;4987978;28;20206;-72
2022/06/07 02:45:46;;;;;;;4.00;3.70;;;17.80;99.90;;;;;;5007227;28;20212;-73
2022/06/07 02:48:13;;;;;;;3.87;3.60;;;17.80;99.90;;;;;;5007089;28;20217;-72
2022/06/07 02:50:40;;;;;;;3.80;3.50;;;17.80;99.90;;;;;;5007442;28;20217;-72
2022/06/07 02:53:06;;;;;;;3.53;3.27;;;17.80;99.90;;;;;;5007069;28;20331;-72
2022/06/07 02:55:34;;;;;;;3.50;3.30;;;17.80;99.90;;;;;;5007173;28;20221;-72
2022/06/07 02:58:01;;;;;;;3.23;3.03;;;17.70;99.90;;;;;;5007147;28;20210;-73
2022/06/07 03:00:28;;;;;;;6.47;2.93;;;17.70;99.90;;;;;;5007286;28;20213;-73
2022/06/07 03:02:56;;;;;;;3.40;3.10;;;17.70;99.90;;;;;;5007102;28;20205;-71
2022/06/07 03:05:22;;;;;;;3.40;3.20;;;17.80;99.90;;;;;;5007100;28;20243;-71
2022/06/07 03:07:50;;;;;;;3.60;3.40;;;17.80;99.90;;;;;;5006059;28;20205;-71
2022/06/07 03:10:18;;;;;;;3.50;3.30;;;17.80;99.90;;;;;;4995448;28;20206;-73
2022/06/07 03:12:45;;;;;;;3.57;3.27;;;17.70;99.90;;;;;;4986905;28;20696;-73
2022/06/07 03:15:12;;;;;;;3.00;2.80;;;17.70;99.90;;;;;;5008039;28;20211;-72
2022/06/07 03:17:40;;;;;;;3.20;3.00;;;17.70;99.90;;;;;;5007707;28;20209;-73
2022/06/07 03:20:10;;;;;;;3.60;3.30;;;17.70;99.90;;;;;;5003493;28;20716;-73
2022/06/07 03:22:37;;;;;;;3.80;2.80;;;17.70;99.90;;;;;;4989125;28;20208;-72
2022/06/07 03:25:06;;;;;;;3.10;2.90;;;17.70;99.90;;;;;;4988730;28;20206;-72
2022/06/07 03:27:33;;;;;;;3.27;3.07;;;17.70;99.90;;;;;;4988621;28;20222;-73
2022/06/07 03:29:59;;;;;;;3.20;3.00;;;17.70;99.90;;;;;;4988769;28;20605;-72
2022/06/07 03:32:26;;;;;;;3.20;3.00;;;17.70;99.90;;;;;;4988760;28;20206;-73
2022/06/07 03:34:53;;;;;;;3.27;3.07;;;17.50;99.90;;;;;;4988647;28;20216;-72
2022/06/07 03:37:21;;;;;;;2.90;2.80;;;17.30;99.90;;;;;;4988476;28;20245;-73
2022/06/07 03:39:48;;;;;;;3.40;3.20;;;17.20;99.90;;;;;;4999940;28;20213;-72
2022/06/07 03:42:15;;;;;;;3.23;3.03;;;17.00;99.90;;;;;;5008045;28;20219;-72
2022/06/07 03:44:45;;;;;;;2.97;2.87;;;17.00;99.90;;;;;;5007905;28;20217;-73
2022/06/07 03:47:12;;;;;;;3.00;2.80;;;17.10;99.90;;;;;;5008090;28;20245;-72
2022/06/07 03:49:40;;;;;;;4.43;3.27;;;17.10;99.90;;;;;;5008201;28;20237;-72
2022/06/07 03:52:07;;;;;;;3.90;3.43;;;17.10;99.90;;;;;;5007593;28;20683;-71
2022/06/07 03:54:35;;;;;;;4.03;3.13;;;17.10;99.90;;;;;;5007743;28;20229;-73
2022/06/07 03:57:03;;;;;;;3.40;3.10;;;17.20;99.90;;;;;;5007938;28;20205;-73
2022/06/07 03:59:29;;;;;;;3.00;2.70;;;17.20;99.90;;;;;;5007946;28;20664;-73
2022/06/07 04:01:56;;;;;;;3.83;3.23;;;17.10;99.90;;;;;;5007937;28;20205;-74
2022/06/07 04:04:24;;;;;;;3.20;3.00;;;17.10;99.90;;;;;;5008160;28;20296;-72
2022/06/07 04:09:39;;;;;;;3.43;3.10;;;17.10;99.90;;;;;;5007748;28;20228;-72
2022/06/07 04:12:07;;;;;;;3.30;3.00;;;17.00;99.90;;;;;;5007403;28;20218;-72
2022/06/07 04:14:34;;;;;;;3.70;3.40;;;17.00;99.90;;;;;;5007882;28;20236;-72
2022/06/07 04:17:01;;;;;;;3.40;3.20;;;17.00;99.90;;;;;;5007096;28;20826;-72
2022/06/07 04:19:28;;;;;;;4.87;4.47;;;17.00;99.90;;;;;;5007867;28;20213;-72
2022/06/07 04:21:54;;;;;;;4.93;4.13;;;17.10;99.90;;;;;;5007144;28;20268;-72
2022/06/07 04:24:21;;;;;;;3.17;3.07;;;17.20;99.90;;;;;;5007332;28;20209;-73
2022/06/07 04:26:50;;;;;;;3.70;3.50;;;17.20;99.90;;;;;;5007706;28;20209;-72
2022/06/07 04:29:16;;;;;;;3.67;3.27;;;17.20;99.90;;;;;;5007649;28;20229;-73
2022/06/07 04:31:43;;;;;;;3.70;3.50;;;17.20;99.90;;;;;;5007949;28;20205;-72
2022/06/07 04:34:10;;;;;;;3.50;3.10;;;17.10;99.90;;;;;;5007131;28;20588;-72
2022/06/07 04:36:37;;;;;;;3.30;3.10;;;17.00;99.90;;;;;;5007202;28;20237;-72
2022/06/07 04:39:07;;;;;;;4.20;3.10;;;16.90;99.90;;;;;;5007356;28;20220;-73
2022/06/07 04:41:33;;;;;;;3.20;3.00;;;17.10;99.90;;;;;;5007747;28;20209;-72
2022/06/07 04:44:02;;;;;;;4.30;2.93;;;17.10;99.90;;;;;;5007741;28;20216;-73
2022/06/07 04:46:29;;;;;;;2.80;2.40;;;17.20;99.90;;;;;;5007051;28;20210;-73
2022/06/07 04:48:56;;;;;;;5.30;4.90;;;17.20;99.90;;;;;;5007215;28;20205;-72
2022/06/07 04:51:27;;;;;;;3.20;3.00;;;17.30;99.90;;;;;;5007602;28;20231;-73
2022/06/07 04:53:55;;;;;;;3.37;3.07;;;17.30;99.90;;;;;;5007139;28;20275;-73
2022/06/07 04:56:24;;;;;;;4.80;4.50;;;17.40;99.90;;;;;;5007202;28;20206;-73
2022/06/07 04:58:51;;;;;;;3.60;3.40;;;17.40;99.90;;;;;;5007450;28;20215;-74
2022/06/07 05:01:21;;;;;;;2.67;2.57;;;17.40;99.90;;;;;;5007371;28;20214;-73
2022/06/07 05:03:49;;;;;;;2.43;2.33;;;17.40;99.90;;;;;;5007105;28;20248;-73
2022/06/07 05:06:18;;;;;;;2.43;2.30;;;17.50;99.90;;;;;;5006997;28;20241;-72
2022/06/07 05:08:45;;;;;;;2.50;2.33;;;17.50;99.90;;;;;;5007165;28;20213;-72
2022/06/07 05:11:12;;;;;;;2.63;2.43;;;17.60;99.90;;;;;;5007004;28;20272;-73
2022/06/07 05:13:38;;;;;;;2.70;2.47;;;17.60;99.90;;;;;;5003886;28;20650;-72
2022/06/07 05:16:08;;;;;;;2.50;2.33;;;17.70;99.90;;;;;;5006444;28;20624;-72
2022/06/07 05:18:37;;;;;;;3.03;2.50;;;17.70;99.90;;;;;;5006791;28;20703;-72
2022/06/07 05:21:08;;;;;;;2.50;2.30;;;17.70;99.90;;;;;;5006880;28;20206;-72
2022/06/07 05:23:35;;;;;;;4.53;4.23;;;17.80;99.90;;;;;;5006923;28;20209;-73
2022/06/07 05:26:08;;;;;;;4.23;2.97;;;17.80;99.90;;;;;;5006873;28;20740;-72
2022/06/07 05:28:36;;;;;;;2.40;2.30;;;17.80;99.90;;;;;;5007149;28;20229;-72
2022/06/07 05:31:07;;;;;;;2.30;2.20;;;17.80;99.90;;;;;;5006806;28;20215;-72
2022/06/07 05:33:35;;;;;;;3.00;2.60;;;17.90;99.90;;;;;;5007457;28;20222;-72
2022/06/07 05:36:10;;;;;;;2.40;2.30;;;17.90;99.90;;;;;;5010018;28;20209;-72
2022/06/07 05:38:37;;;;;;;2.57;2.30;;;18.00;99.90;;;;;;5010174;28;20201;-72
2022/06/07 05:41:07;;;;;;;2.77;2.27;;;18.00;99.90;;;;;;5010187;28;20711;-72
2022/06/07 05:43:34;;;;;;;3.00;2.30;;;18.10;99.90;;;;;;5010303;28;20299;-72
2022/06/07 05:46:01;;;;;;;2.43;2.30;;;18.10;99.90;;;;;;5010465;28;20210;-72
2022/06/07 05:48:33;;;;;;;1.90;1.80;;;18.20;99.90;;;;;;5010418;28;20209;-72
2022/06/07 05:51:01;;;;;;;3.93;1.90;;;18.20;99.90;;;;;;5010201;28;20300;-72
2022/06/07 05:53:27;;;;;;;1.70;1.60;;;18.20;99.90;;;;;;5010284;28;20215;-73
2022/06/07 05:55:56;;;;;;;1.73;1.63;;;18.20;99.90;;;;;;5009938;28;20672;-72
2022/06/07 05:58:25;;;;;;;1.90;1.67;;;18.30;99.90;;;;;;5010707;28;20202;-72
2022/06/07 06:00:51;;;;;;;3.20;1.70;;;18.30;99.90;;;;;;5010379;28;20307;-72
2022/06/07 06:03:18;;;;;;;1.93;1.67;;;18.30;99.90;;;;;;5010205;28;20205;-72
2022/06/07 06:05:46;;;;;;;2.50;1.60;;;18.30;99.90;;;;;;5010320;28;20212;-72
2022/06/07 06:11:10;;;;;;;1.90;1.60;;;18.30;99.90;;;;;;4990265;28;20224;-72
2022/06/07 06:13:38;;;;;;;1.30;1.23;;;18.30;99.90;;;;;;4990623;28;20236;-72
2022/06/07 06:16:10;;;;;;;1.67;1.50;;;18.30;99.90;;;;;;4991963;28;20214;-73
2022/06/07 06:18:37;;;;;;;2.73;1.70;;;18.40;99.90;;;;;;5009664;28;20660;-73
2022/06/07 06:21:07;;;;;;;2.57;1.50;;;18.40;99.90;;;;;;5009732;28;20213;-73
2022/06/07 06:23:36;;;;;;;2.03;1.83;;;18.50;99.90;;;;;;5009228;28;20209;-72
2022/06/07 06:26:10;;;;;;;4.33;1.33;;;18.60;99.90;;;;;;5008954;28;20211;-72
2022/06/07 06:28:37;;;;;;;3.27;1.73;;;18.70;99.90;;;;;;5007965;28;20230;-73
2022/06/07 06:31:09;;;;;;;1.60;1.50;;;18.80;99.90;;;;;;5009336;28;20263;-73
2022/06/07 06:33:38;;;;;;;1.73;1.63;;;18.90;99.90;;;;;;5009762;28;20221;-73
2022/06/07 06:36:09;;;;;;;1.60;1.50;;;18.90;99.90;;;;;;5008944;28;20217;-73
2022/06/07 06:38:38;;;;;;;2.00;1.60;;;19.00;99.90;;;;;;5009398;28;20200;-72
2022/06/07 06:41:09;;;;;;;1.67;1.50;;;18.90;99.90;;;;;;5009129;28;20681;-73
2022/06/07 06:43:36;;;;;;;1.60;1.40;;;18.90;99.90;;;;;;5009448;28;20216;-73
2022/06/07 06:46:07;;;;;;;2.10;1.90;;;19.00;99.90;;;;;;5008486;28;20206;-73
2022/06/07 06:48:34;;;;;;;2.20;1.50;;;19.00;99.90;;;;;;5008990;28;20997;-73
2022/06/07 06:51:01;;;;;;;1.60;1.50;;;19.10;99.90;;;;;;5009139;28;20217;-73
2022/06/07 06:53:28;;;;;;;1.57;1.47;;;19.20;99.90;;;;;;5009159;28;20216;-73
2022/06/07 06:55:57;;;;;;;2.03;1.30;;;19.20;99.90;;;;;;5008961;28;20206;-73
2022/06/07 06:58:25;;;;;;;2.20;1.80;;;19.30;99.90;;;;;;4996117;28;20673;-73
2022/06/07 07:01:01;;;;;;;1.73;1.50;;;19.30;99.90;;;;;;4989727;28;20206;-74
2022/06/07 07:03:28;;;;;;;1.20;1.20;;;19.40;99.90;;;;;;5006297;28;20213;-74
2022/06/07 07:05:56;;;;;;;3.27;1.60;;;19.40;99.90;;;;;;5008785;28;20248;-74
2022/06/07 07:08:24;;;;;;;3.83;1.50;;;19.40;99.90;;;;;;5008516;28;20743;-73
2022/06/07 07:10:51;;;;;;;1.30;1.30;;;19.40;99.90;;;;;;5008636;28;20209;-73
2022/06/07 07:13:19;;;;;;;1.97;1.57;;;19.50;99.90;;;;;;5008396;28;20217;-74
2022/06/07 07:15:48;;;;;;;1.87;1.20;;;19.50;99.90;;;;;;5008496;28;20241;-74
2022/06/07 07:18:17;;;;;;;1.47;1.33;;;19.50;99.90;;;;;;5003750;28;20212;-74
2022/06/07 07:20:44;;;;;;;1.50;1.40;;;19.60;99.90;;;;;;5008402;28;20747;-74
2022/06/07 07:23:10;;;;;;;2.00;1.33;;;19.50;99.90;;;;;;5007990;28;20246;-74
2022/06/07 07:25:37;;;;;;;2.17;1.50;;;19.60;99.90;;;;;;5008397;28;20763;-74
2022/06/07 07:28:05;;;;;;;1.60;1.50;;;19.60;99.90;;;;;;5008069;28;20316;-73
2022/06/07 07:30:33;;;;;;;1.93;1.40;;;19.60;99.90;;;;;;5008767;28;20213;-74
2022/06/07 07:33:00;;;;;;;1.57;1.27;;;19.70;99.90;;;;;;5008345;28;20232;-74
2022/06/07 07:35:27;;;;;;;1.30;1.20;;;19.70;99.90;;;;;;5008321;28;20243;-74
2022/06/07 07:37:54;;;;;;;2.27;1.20;;;19.80;99.90;;;;;;5007915;28;20253;-73
2022/06/07 07:40:21;;;;;;;2.33;1.47;;;19.90;99.90;;;;;;5008037;28;20660;-74
2022/06/07 07:42:47;;;;;;;1.97;1.00;;;20.00;99.90;;;;;;5008389;28;20216;-73
2022/06/07 07:45:15;;;;;;;1.47;1.10;;;20.00;99.90;;;;;;5008320;28;20213;-74
2022/06/07 07:47:43;;;;;;;2.97;1.43;;;20.10;99.90;;;;;;5007997;28;20711;-74
2022/06/07 07:50:11;;;;;;;2.97;1.20;;;20.20;99.90;;;;;;5008322;28;20301;-74
2022/06/07 07:52:38;;;;;;;1.87;1.13;;;20.20;99.90;;;;;;5008278;28;20241;-74
2022/06/07 07:55:06;;;;;;;1.63;1.20;;;20.20;99.90;;;;;;5007754;28;20264;-74
2022/06/07 07:57:32;;;;;;;1.80;1.20;;;20.20;99.90;;;;;;5002407;28;20214;-74
2022/06/07 07:59:59;;;;;;;0.97;0.90;;;20.20;99.90;;;;;;5007473;28;20300;-74
2022/06/07 08:02:26;;;;;;;2.13;1.20;;;20.20;99.90;;;;;;5008091;28;20205;-74
2022/06/07 08:04:54;;;;;;;0.97;0.97;;;20.20;99.90;;;;;;5007945;28;20206;-74
2022/06/07 08:07:21;;;;;;;1.07;0.97;;;20.20;99.90;;;;;;5007866;28;20205;-74
2022/06/07 08:09:48;;;;;;;0.87;0.87;;;20.20;99.90;;;;;;5007800;28;20232;-74
2022/06/07 08:12:15;;;;;;;1.53;1.00;;;20.20;99.90;;;;;;5007890;28;20213;-74
2022/06/07 08:14:42;;;;;;;1.17;0.90;;;20.20;99.90;;;;;;5008041;28;20229;-74
2022/06/07 08:17:08;;;;;;;1.17;1.00;;;20.30;99.90;;;;;;5007580;28;20201;-74
2022/06/07 08:19:35;;;;;;;0.90;0.90;;;20.40;99.90;;;;;;5007921;28;20205;-74
2022/06/07 08:22:04;;;;;;;1.67;1.00;;;20.50;99.90;;;;;;5007559;28;20547;-72
2022/06/07 08:24:31;;;;;;;2.60;1.07;;;20.60;99.90;;;;;;5007588;28;20214;-72
2022/06/07 08:26:58;;;;;;;2.47;1.30;;;20.60;99.90;;;;;;5007268;28;20259;-72
2022/06/07 08:29:25;;;;;;;4.40;1.20;;;20.60;99.90;;;;;;5007497;28;20234;-71
2022/06/07 08:31:52;;;;;;;1.97;0.97;;;20.70;99.90;;;;;;5007499;28;20202;-72
2022/06/07 08:39:50;;;;;;;1.20;1.13;;;20.80;99.90;;;;;;5007290;28;20670;-73
2022/06/07 08:42:23;;;;;;;1.53;1.00;;;20.70;99.90;;;;;;5007766;28;20209;-74
2022/06/07 08:44:53;;;;;;;2.07;1.13;;;20.80;99.90;;;;;;5007613;28;20204;-74
2022/06/07 08:47:31;;;;;;;1.03;1.03;;;20.80;99.90;;;;;;5007613;28;20202;-73
2022/06/07 08:50:02;;;;;;;1.73;1.00;;;20.90;99.90;;;;;;5007453;28;20205;-74
2022/06/07 08:52:35;;;;;;;1.43;1.20;;;20.90;99.90;;;;;;5007766;28;20260;-73
2022/06/07 08:55:11;;;;;;;2.37;1.30;;;21.00;99.90;;;;;;5007122;28;20312;-71
2022/06/07 08:57:38;;;;;;;1.43;1.33;;;21.10;99.90;;;;;;5007214;28;20201;-71
2022/06/07 09:00:15;;;;;;;2.53;1.30;;;21.20;99.90;;;;;;5007477;28;20245;-71
2022/06/07 09:03:13;;;;;;;2.07;1.50;;;21.20;99.90;;;;;;5007246;28;20774;-71
2022/06/07 09:05:39;;;;;;;1.57;1.20;;;21.20;99.90;;;;;;4993697;28;20224;-72
2022/06/07 09:08:09;;;;;;;1.40;1.30;;;21.30;99.90;;;;;;5006825;28;20648;-71
2022/06/07 09:13:25;;;;;;;1.47;1.30;;;21.30;99.90;;;;;;5010676;28;20718;-73
2022/06/07 09:15:55;;;;;;;1.40;1.30;;;21.30;99.90;;;;;;5010487;28;20281;-73
2022/06/07 09:18:26;;;;;;;3.33;1.30;;;21.30;99.90;;;;;;5010677;28;20233;-73
2022/06/07 09:20:54;;;;;;;1.50;1.30;;;21.30;99.90;;;;;;5010497;28;20678;-73
2022/06/07 09:23:27;;;;;;;1.53;1.40;;;21.40;99.90;;;;;;5010572;28;20219;-73
2022/06/07 09:25:57;;;;;;;1.90;1.30;;;21.50;99.90;;;;;;5010893;28;20212;-73
2022/06/07 09:28:27;;;;;;;2.30;1.43;;;21.60;99.90;;;;;;5010644;28;20244;-73
2022/06/07 09:31:00;;;;;;;1.63;1.50;;;21.70;99.90;;;;;;5011098;28;20598;-73
2022/06/07 09:33:29;;;;;;;2.25;1.73;;;21.70;99.90;;;;;;5010789;28;20285;-73
2022/06/07 09:35:58;;;;;;;4.78;1.67;;;21.80;99.90;;;;;;5009920;28;20714;-73
2022/06/07 09:38:34;;;;;;;1.87;1.27;;;21.80;99.90;;;;;;5010837;28;20233;-73
2022/06/07 09:41:36;;;;;;;2.15;1.50;;;21.80;99.90;;;;;;5010622;28;20204;-73
2022/06/07 09:44:02;;;;;;;3.83;1.30;;;21.90;99.90;;;;;;5009897;28;20217;-73
2022/06/07 09:46:30;;;;;;;1.23;1.10;;;21.90;99.90;;;;;;5010471;28;20198;-73
2022/06/07 09:48:57;;;;;;;3.58;1.40;;;21.90;99.90;;;;;;5010352;28;20255;-73
2022/06/07 09:51:28;;;;;;;1.25;1.25;;;21.90;99.90;;;;;;5008925;28;20213;-73
2022/06/07 09:54:03;;;;;;;1.25;1.23;;;21.90;99.90;;;;;;4995412;28;20241;-74
2022/06/07 09:56:38;;;;;;;2.38;1.42;;;22.00;99.90;;;;;;5010232;28;20225;-73
2022/06/07 09:59:21;;;;;;;1.50;1.40;;;22.10;99.90;;;;;;4992004;28;20213;-73
2022/06/07 10:01:54;;;;;;;1.37;1.00;;;22.30;99.90;;;;;;4990495;28;20292;-73
2022/06/07 10:04:33;;;;;;;1.40;1.30;;;22.30;99.90;;;;;;5003969;28;20641;-73
2022/06/07 10:07:02;;;;;;;2.92;1.27;;;22.40;99.90;;;;;;5009678;28;20205;-73
2022/06/07 10:09:54;;;;;;;1.90;1.15;;;22.40;99.90;;;;;;5009957;28;20370;-73
2022/06/07 10:12:30;;;;;;;1.95;1.17;;;22.40;99.90;;;;;;5009633;28;20194;-73
2022/06/07 10:15:18;;;;;;;1.40;1.30;;;22.50;99.90;;;;;;5009705;28;20217;-73
2022/06/07 10:18:00;;;;;;;2.17;1.20;;;22.60;99.90;;;;;;5009512;28;20209;-73
2022/06/07 10:20:33;;;;;;;1.65;1.55;;;22.60;99.80;;;;;;5008752;28;20276;-73
2022/06/07 10:23:26;;;;;;;1.08;1.05;;;22.50;99.90;;;;;;5009361;28;20221;-73
2022/06/07 10:26:27;;;;;;;1.63;1.20;;;22.60;99.90;;;;;;5009448;28;20201;-73
2022/06/07 10:29:11;;;;;;;3.13;1.33;;;22.70;99.90;;;;;;5008612;28;20233;-73
2022/06/07 10:31:43;;;;;;;2.38;1.20;;;22.80;99.10;;;;;;5009814;28;20205;-73
2022/06/07 10:34:14;;;;;;;1.10;1.10;;;22.90;99.50;;;;;;5009566;28;20201;-73
2022/06/07 10:36:51;;;;;;;1.27;0.95;;;22.80;99.50;;;;;;5009098;28;20368;-73
2022/06/07 10:39:31;;;;;;;1.98;1.30;;;22.90;99.00;;;;;;5008605;28;20646;-73
2022/06/07 10:42:11;;;;;;;1.15;0.77;;;23.00;98.70;;;;;;5009254;28;20194;-73
2022/06/07 10:44:42;;;;;;;2.05;1.13;;;23.30;96.80;;;;;;5009083;28;20248;-74
2022/06/07 10:47:23;;;;;;;0.70;0.70;;;23.40;96.30;;;;;;5009044;28;20563;-73
2022/06/07 10:49:55;;;;;;;0.88;0.75;;;23.60;96.50;;;;;;5008583;28;20214;-73
2022/06/07 10:52:38;;;;;;;4.68;0.80;;;23.80;95.10;;;;;;5009146;28;20208;-73
2022/06/07 10:55:20;;;;;;;0.88;0.55;;;23.90;93.20;;;;;;5006311;28;20240;-73
2022/06/07 10:57:59;;;;;;;3.45;0.70;;;23.70;92.70;;;;;;5000943;28;20210;-73
2022/06/07 11:00:37;;;;;;;0.75;0.65;;;23.60;92.50;;;;;;5001696;28;20258;-73
2022/06/07 11:03:15;;;;;;;1.10;0.68;;;23.60;92.00;;;;;;5008592;28;20648;-73
2022/06/07 11:11:21;;;;;;;1.55;0.55;;;23.80;91.30;;;;;;5008644;28;20212;-73
2022/06/07 11:14:15;;;;;;;0.77;0.77;;;23.80;91.40;;;;;;5008537;28;20252;-73
2022/06/07 11:16:53;;;;;;;0.75;0.75;;;23.90;91.80;;;;;;5008378;28;20229;-73
2022/06/07 11:19:20;;;;;;;0.57;0.57;;;23.70;91.70;;;;;;5008931;28;20288;-73
2022/06/07 11:21:49;;;;;;;1.20;0.75;;;23.60;91.90;;;;;;5008604;28;20233;-73
2022/06/07 11:24:20;;;;;;;2.55;1.00;;;23.40;91.90;;;;;;5008452;28;20205;-73
2022/06/07 11:27:22;;;;;;;1.30;0.93;;;23.20;92.60;;;;;;5008615;28;20251;-73
2022/06/07 11:30:25;;;;;;;1.48;0.77;;;23.20;92.90;;;;;;4989140;28;20201;-73
2022/06/07 11:32:55;;;;;;;1.23;0.88;;;23.10;92.90;;;;;;4988575;28;20194;-73
2022/06/07 11:35:45;;;;;;;3.80;0.73;;;23.10;93.00;;;;;;4988958;28;20238;-73
2022/06/07 11:38:30;;;;;;;0.88;0.70;;;23.10;92.90;;;;;;4969072;28;20310;-73
2022/06/07 11:41:41;;;;;;;1.17;0.93;;;23.10;93.10;;;;;;4969449;28;20302;-73
2022/06/07 11:44:28;;;;;;;0.73;0.73;;;23.10;93.20;;;;;;4978323;28;20210;-73
2022/06/07 11:47:01;;;;;;;0.82;0.82;;;23.20;92.80;;;;;;4969251;28;20199;-73
2022/06/07 11:49:41;;;;;;;0.90;0.90;;;23.40;92.60;;;;;;4969023;28;20639;-73
2022/06/07 11:52:23;;;;;;;1.27;0.75;;;23.60;92.60;;;;;;4969265;28;20277;-74
2022/06/07 11:54:54;;;;;;;1.50;0.95;;;23.60;92.40;;;;;;4969086;28;20195;-73
2022/06/07 11:57:29;;;;;;;1.52;0.60;;;23.70;92.20;;;;;;4986156;28;20709;-73
2022/06/07 12:00:23;;;;;;;0.60;0.60;;;23.80;91.90;;;;;;4988291;28;20198;-73
2022/06/07 12:03:13;;;;;;;0.63;0.63;;;23.70;91.70;;;;;;4987936;28;20194;-73
2022/06/07 12:05:45;;;;;;;2.25;0.70;;;23.70;91.60;;;;;;4988324;28;20214;-73
2022/06/07 12:08:20;;;;;;;2.42;0.90;;;23.60;91.80;;;;;;4987780;28;20669;-73
2022/06/07 12:10:59;;;;;;;3.72;0.90;;;23.60;92.40;;;;;;4988546;28;20202;-73
2022/06/07 12:16:25;;;;;;;2.33;1.13;;;23.50;91.90;;;;;;4987898;28;20991;-73
2022/06/07 12:18:54;;;;;;;1.00;0.82;;;23.40;91.00;;;;;;4988413;28;20204;-73
2022/06/07 12:21:21;;;;;;;1.05;0.60;;;23.30;91.00;;;;;;4988281;28;20210;-73
2022/06/07 12:23:50;;;;;;;2.83;1.10;;;23.20;91.00;;;;;;4988117;28;20238;-72
2022/06/07 12:26:19;;;;;;;4.32;0.75;;;23.50;91.90;;;;;;4988434;28;20225;-73
2022/06/07 12:28:51;;;;;;;3.30;0.88;;;23.80;90.50;;;;;;4988140;28;20605;-73
2022/06/07 12:31:28;;;;;;;0.85;0.63;;;24.00;90.40;;;;;;4988460;28;20208;-73
2022/06/07 12:33:58;;;;;;;2.50;0.82;;;24.20;90.00;;;;;;5006470;28;20197;-73
2022/06/07 12:36:30;;;;;;;1.90;0.68;;;24.00;90.50;;;;;;5012547;28;20711;-73
2022/06/07 12:39:02;;;;;;;1.45;0.80;;;24.20;91.00;;;;;;5027287;28;20380;-73
2022/06/07 12:41:33;;;;;;;4.18;0.90;;;24.30;90.60;;;;;;5015402;28;20220;-73
2022/06/07 12:44:02;;;;;;;1.73;0.80;;;24.50;90.70;;;;;;5008539;28;20369;-73
2022/06/07 12:46:32;;;;;;;2.75;0.70;;;24.60;90.40;;;;;;5011665;28;20291;-73
2022/06/07 12:49:00;;;;;;;1.50;1.05;;;24.80;90.60;;;;;;5011549;28;20577;-73
2022/06/07 12:51:34;;;;;;;3.42;0.85;;;25.20;91.20;;;;;;5011580;28;20308;-73
2022/06/07 12:54:04;;;;;;;5.15;1.70;;;25.40;90.00;;;;;;5011177;28;20197;-73
2022/06/07 12:56:35;;;;;;;5.10;1.10;;;25.50;91.10;;;;;;5011373;28;20319;-73
2022/06/07 12:59:06;;;;;;;9.20;1.73;;;25.60;91.20;;;;;;5011282;28;20209;-73
2022/06/07 13:01:39;;;;;;;1.58;0.95;;;25.70;91.30;;;;;;5011331;28;20208;-73
2022/06/07 13:04:18;;;;;;;2.17;0.75;;;25.60;87.30;;;;;;5011149;28;20198;-73
2022/06/07 13:06:59;;;;;;;2.17;0.75;;;25.20;90.10;;;;;;5011187;28;20260;-73
2022/06/07 13:09:26;;;;;;;1.88;1.20;;;25.00;88.40;;;;;;5010866;28;20194;-73
2022/06/07 13:11:53;;;;;;;0.90;0.90;;;24.80;90.30;;;;;;5010764;28;20213;-73
2022/06/07 13:14:20;;;;;;;2.10;0.63;;;24.60;90.40;;;;;;5010982;28;20209;-73
2022/06/07 13:16:48;;;;;;;2.50;1.10;;;24.50;91.20;;;;;;5010965;28;20267;-73
2022/06/07 13:19:28;;;;;;;1.60;0.75;;;24.20;90.80;;;;;;5010944;28;20301;-73
2022/06/07 13:22:04;;;;;;;1.50;0.80;;;24.00;91.30;;;;;;5010789;28;20197;-73
2022/06/07 13:24:40;;;;;;;0.70;0.70;;;24.00;91.60;;;;;;5010346;28;20194;-73
2022/06/07 13:27:31;;;;;;;0.77;0.77;;;23.80;90.80;;;;;;5010681;28;20204;-73
2022/06/07 13:30:00;;;;;;;2.65;0.93;;;23.80;91.20;;;;;;4998693;28;20252;-74
2022/06/07 13:32:29;;;;;;;2.42;0.85;;;23.80;92.10;;;;;;5010594;28;20229;-73
2022/06/07 13:35:01;;;;;;;1.52;0.90;;;23.80;91.70;;;;;;5009719;28;20205;-73